sensor_id;sensor_type;location;lat;lon;timestamp;P1;durP1;ratioP1;P2;durP2;ratioP2
5674;SDS011;2860;54.284;10.158;2022-12-29T00:02:16;5.78;;;5.25;;
5674;SDS011;2860;54.284;10.158;2022-12-29T00:04:42;7.03;;;6.28;;
5674;SDS011;2860;54.284;10.158;2022-12-29T00:07:07;5.93;;;5.68;;
5674;SDS011;2860;54.284;10.158;2022-12-29T00:09:34;7.60;;;6.93;;
5674;SDS011;2860;54.284;10.158;2022-12-29T00:12:00;12.75;;;6.75;;
5674;SDS011;2860;54.284;10.158;2022-12-29T00:14:27;7.88;;;7.07;;
5674;SDS011;2860;54.284;10.158;2022-12-29T00:17:31;8.27;;;7.68;;
5674;SDS011;2860;54.284;10.158;2022-12-29T00:19:56;9.23;;;8.43;;
5674;SDS011;2860;54.284;10.158;2022-12-29T00:22:40;6.75;;;6.28;;
5674;SDS011;2860;54.284;10.158;2022-12-29T00:25:25;9.75;;;8.82;;
5674;SDS011;2860;54.284;10.158;2022-12-29T00:28:09;10.23;;;9.13;;
5674;SDS011;2860;54.284;10.158;2022-12-29T00:30:53;9.10;;;8.23;;
5674;SDS011;2860;54.284;10.158;2022-12-29T00:33:41;9.25;;;8.25;;
5674;SDS011;2860;54.284;10.158;2022-12-29T00:36:36;10.55;;;9.43;;
5674;SDS011;2860;54.284;10.158;2022-12-29T00:39:11;9.75;;;9.02;;
5674;SDS011;2860;54.284;10.158;2022-12-29T00:42:05;10.85;;;9.93;;
5674;SDS011;2860;54.284;10.158;2022-12-29T00:44:50;11.05;;;10.15;;
5674;SDS011;2860;54.284;10.158;2022-12-29T00:47:15;11.45;;;10.48;;
5674;SDS011;2860;54.284;10.158;2022-12-29T00:49:41;10.73;;;9.73;;
5674;SDS011;2860;54.284;10.158;2022-12-29T00:52:07;11.10;;;10.23;;
5674;SDS011;2860;54.284;10.158;2022-12-29T00:54:36;12.85;;;9.63;;
5674;SDS011;2860;54.284;10.158;2022-12-29T00:57:03;12.07;;;10.85;;
5674;SDS011;2860;54.284;10.158;2022-12-29T00:59:29;11.98;;;10.73;;
5674;SDS011;2860;54.284;10.158;2022-12-29T01:01:55;13.60;;;11.95;;
5674;SDS011;2860;54.284;10.158;2022-12-29T01:04:22;13.85;;;11.60;;
5674;SDS011;2860;54.284;10.158;2022-12-29T01:06:48;11.93;;;10.98;;
5674;SDS011;2860;54.284;10.158;2022-12-29T01:09:14;12.77;;;11.65;;
5674;SDS011;2860;54.284;10.158;2022-12-29T01:11:59;12.52;;;10.65;;
5674;SDS011;2860;54.284;10.158;2022-12-29T01:14:25;13.00;;;11.70;;
5674;SDS011;2860;54.284;10.158;2022-12-29T01:16:52;13.05;;;12.02;;
5674;SDS011;2860;54.284;10.158;2022-12-29T01:19:18;13.93;;;12.52;;
5674;SDS011;2860;54.284;10.158;2022-12-29T01:21:45;13.48;;;12.18;;
5674;SDS011;2860;54.284;10.158;2022-12-29T01:24:12;14.73;;;13.18;;
5674;SDS011;2860;54.284;10.158;2022-12-29T01:26:38;15.02;;;13.23;;
5674;SDS011;2860;54.284;10.158;2022-12-29T01:29:04;24.77;;;12.60;;
5674;SDS011;2860;54.284;10.158;2022-12-29T01:31:29;14.45;;;13.02;;
5674;SDS011;2860;54.284;10.158;2022-12-29T01:33:55;15.52;;;14.13;;
5674;SDS011;2860;54.284;10.158;2022-12-29T01:36:21;14.45;;;13.02;;
5674;SDS011;2860;54.284;10.158;2022-12-29T01:38:46;15.02;;;13.52;;
5674;SDS011;2860;54.284;10.158;2022-12-29T01:41:13;16.50;;;14.52;;
5674;SDS011;2860;54.284;10.158;2022-12-29T01:51:32;17.10;;;13.85;;
5674;SDS011;2860;54.284;10.158;2022-12-29T01:54:07;14.88;;;12.90;;
5674;SDS011;2860;54.284;10.158;2022-12-29T01:56:41;14.98;;;13.50;;
5674;SDS011;2860;54.284;10.158;2022-12-29T01:59:08;14.57;;;13.10;;
5674;SDS011;2860;54.284;10.158;2022-12-29T02:01:40;16.92;;;14.38;;
5674;SDS011;2860;54.284;10.158;2022-12-29T02:04:06;14.32;;;12.93;;
5674;SDS011;2860;54.284;10.158;2022-12-29T02:06:39;14.88;;;13.38;;
5674;SDS011;2860;54.284;10.158;2022-12-29T02:09:10;14.77;;;13.45;;
5674;SDS011;2860;54.284;10.158;2022-12-29T02:11:35;18.88;;;16.63;;
5674;SDS011;2860;54.284;10.158;2022-12-29T02:14:07;22.95;;;14.48;;
5674;SDS011;2860;54.284;10.158;2022-12-29T02:22:10;13.70;;;12.35;;
5674;SDS011;2860;54.284;10.158;2022-12-29T02:27:43;15.45;;;14.02;;
5674;SDS011;2860;54.284;10.158;2022-12-29T02:39:17;16.33;;;14.02;;
5674;SDS011;2860;54.284;10.158;2022-12-29T02:42:13;14.23;;;12.88;;
5674;SDS011;2860;54.284;10.158;2022-12-29T02:44:56;16.38;;;14.40;;
5674;SDS011;2860;54.284;10.158;2022-12-29T02:47:40;15.73;;;13.98;;
5674;SDS011;2860;54.284;10.158;2022-12-29T02:50:17;15.10;;;13.73;;
5674;SDS011;2860;54.284;10.158;2022-12-29T02:52:49;14.32;;;13.02;;
5674;SDS011;2860;54.284;10.158;2022-12-29T02:55:26;15.45;;;13.48;;
5674;SDS011;2860;54.284;10.158;2022-12-29T03:00:48;13.15;;;12.00;;
5674;SDS011;2860;54.284;10.158;2022-12-29T03:08:59;13.80;;;12.40;;
5674;SDS011;2860;54.284;10.158;2022-12-29T03:11:39;13.10;;;11.80;;
5674;SDS011;2860;54.284;10.158;2022-12-29T03:14:33;13.85;;;12.55;;
5674;SDS011;2860;54.284;10.158;2022-12-29T03:17:29;14.57;;;13.05;;
5674;SDS011;2860;54.284;10.158;2022-12-29T03:20:18;13.50;;;12.20;;
5674;SDS011;2860;54.284;10.158;2022-12-29T03:22:49;14.15;;;12.65;;
5674;SDS011;2860;54.284;10.158;2022-12-29T03:25:20;13.77;;;12.38;;
5674;SDS011;2860;54.284;10.158;2022-12-29T03:27:51;15.65;;;14.07;;
5674;SDS011;2860;54.284;10.158;2022-12-29T03:30:21;17.65;;;14.00;;
5674;SDS011;2860;54.284;10.158;2022-12-29T03:32:51;16.60;;;14.30;;
5674;SDS011;2860;54.284;10.158;2022-12-29T03:35:20;16.88;;;13.55;;
5674;SDS011;2860;54.284;10.158;2022-12-29T03:40:31;16.02;;;14.43;;
5674;SDS011;2860;54.284;10.158;2022-12-29T03:42:59;18.70;;;15.75;;
5674;SDS011;2860;54.284;10.158;2022-12-29T03:45:26;14.30;;;12.63;;
5674;SDS011;2860;54.284;10.158;2022-12-29T03:47:51;15.80;;;14.27;;
5674;SDS011;2860;54.284;10.158;2022-12-29T03:50:18;19.38;;;15.07;;
5674;SDS011;2860;54.284;10.158;2022-12-29T03:52:44;16.65;;;14.95;;
5674;SDS011;2860;54.284;10.158;2022-12-29T03:55:09;16.92;;;14.55;;
5674;SDS011;2860;54.284;10.158;2022-12-29T03:57:35;14.95;;;13.55;;
5674;SDS011;2860;54.284;10.158;2022-12-29T04:00:01;20.92;;;13.82;;
5674;SDS011;2860;54.284;10.158;2022-12-29T04:02:28;18.52;;;13.70;;
5674;SDS011;2860;54.284;10.158;2022-12-29T04:04:53;15.65;;;13.98;;
5674;SDS011;2860;54.284;10.158;2022-12-29T04:07:19;15.63;;;14.10;;
5674;SDS011;2860;54.284;10.158;2022-12-29T04:09:45;14.55;;;13.13;;
5674;SDS011;2860;54.284;10.158;2022-12-29T04:12:10;16.48;;;14.77;;
5674;SDS011;2860;54.284;10.158;2022-12-29T04:14:36;18.73;;;14.57;;
5674;SDS011;2860;54.284;10.158;2022-12-29T04:17:01;19.73;;;14.98;;
5674;SDS011;2860;54.284;10.158;2022-12-29T04:19:26;15.43;;;13.85;;
5674;SDS011;2860;54.284;10.158;2022-12-29T04:21:52;16.05;;;14.32;;
5674;SDS011;2860;54.284;10.158;2022-12-29T04:24:17;16.33;;;14.75;;
5674;SDS011;2860;54.284;10.158;2022-12-29T04:26:43;18.98;;;14.23;;
5674;SDS011;2860;54.284;10.158;2022-12-29T04:29:09;15.48;;;13.98;;
5674;SDS011;2860;54.284;10.158;2022-12-29T04:31:34;18.10;;;13.68;;
5674;SDS011;2860;54.284;10.158;2022-12-29T04:34:00;14.27;;;12.90;;
5674;SDS011;2860;54.284;10.158;2022-12-29T04:36:25;15.07;;;13.50;;
5674;SDS011;2860;54.284;10.158;2022-12-29T04:38:51;13.55;;;12.15;;
5674;SDS011;2860;54.284;10.158;2022-12-29T04:41:16;14.63;;;12.88;;
5674;SDS011;2860;54.284;10.158;2022-12-29T04:43:42;13.48;;;12.23;;
5674;SDS011;2860;54.284;10.158;2022-12-29T04:46:07;14.25;;;13.05;;
5674;SDS011;2860;54.284;10.158;2022-12-29T04:48:33;13.55;;;12.35;;
5674;SDS011;2860;54.284;10.158;2022-12-29T04:50:58;15.65;;;11.73;;
5674;SDS011;2860;54.284;10.158;2022-12-29T04:53:24;12.52;;;11.32;;
5674;SDS011;2860;54.284;10.158;2022-12-29T04:55:50;13.43;;;12.32;;
5674;SDS011;2860;54.284;10.158;2022-12-29T04:58:16;13.35;;;12.07;;
5674;SDS011;2860;54.284;10.158;2022-12-29T05:00:43;13.13;;;11.93;;
5674;SDS011;2860;54.284;10.158;2022-12-29T05:03:08;13.73;;;11.98;;
5674;SDS011;2860;54.284;10.158;2022-12-29T05:05:34;13.20;;;12.02;;
5674;SDS011;2860;54.284;10.158;2022-12-29T05:07:59;13.15;;;11.75;;
5674;SDS011;2860;54.284;10.158;2022-12-29T05:10:24;13.00;;;11.68;;
5674;SDS011;2860;54.284;10.158;2022-12-29T05:12:50;12.88;;;11.50;;
5674;SDS011;2860;54.284;10.158;2022-12-29T05:15:16;14.38;;;11.48;;
5674;SDS011;2860;54.284;10.158;2022-12-29T05:17:41;12.75;;;11.55;;
5674;SDS011;2860;54.284;10.158;2022-12-29T05:20:07;12.45;;;11.38;;
5674;SDS011;2860;54.284;10.158;2022-12-29T05:22:33;10.77;;;9.77;;
5674;SDS011;2860;54.284;10.158;2022-12-29T05:24:59;13.52;;;12.32;;
5674;SDS011;2860;54.284;10.158;2022-12-29T05:27:25;12.55;;;11.38;;
5674;SDS011;2860;54.284;10.158;2022-12-29T05:29:50;11.80;;;10.80;;
5674;SDS011;2860;54.284;10.158;2022-12-29T05:32:16;12.45;;;10.75;;
5674;SDS011;2860;54.284;10.158;2022-12-29T05:34:41;11.98;;;11.07;;
5674;SDS011;2860;54.284;10.158;2022-12-29T05:37:07;11.80;;;10.80;;
5674;SDS011;2860;54.284;10.158;2022-12-29T05:39:32;13.27;;;11.93;;
5674;SDS011;2860;54.284;10.158;2022-12-29T05:41:58;11.27;;;10.07;;
5674;SDS011;2860;54.284;10.158;2022-12-29T05:44:23;11.45;;;10.55;;
5674;SDS011;2860;54.284;10.158;2022-12-29T05:46:49;9.65;;;8.82;;
5674;SDS011;2860;54.284;10.158;2022-12-29T05:49:15;10.30;;;9.32;;
5674;SDS011;2860;54.284;10.158;2022-12-29T05:51:41;10.20;;;9.50;;
5674;SDS011;2860;54.284;10.158;2022-12-29T05:54:06;9.15;;;8.35;;
5674;SDS011;2860;54.284;10.158;2022-12-29T05:56:32;9.10;;;8.40;;
5674;SDS011;2860;54.284;10.158;2022-12-29T05:58:57;8.23;;;7.82;;
5674;SDS011;2860;54.284;10.158;2022-12-29T06:01:23;8.30;;;7.55;;
5674;SDS011;2860;54.284;10.158;2022-12-29T06:03:48;8.05;;;7.55;;
5674;SDS011;2860;54.284;10.158;2022-12-29T06:06:14;7.50;;;7.10;;
5674;SDS011;2860;54.284;10.158;2022-12-29T06:08:39;6.60;;;6.30;;
5674;SDS011;2860;54.284;10.158;2022-12-29T06:11:05;7.40;;;6.70;;
5674;SDS011;2860;54.284;10.158;2022-12-29T06:13:30;6.88;;;6.38;;
5674;SDS011;2860;54.284;10.158;2022-12-29T06:15:56;6.72;;;6.20;;
5674;SDS011;2860;54.284;10.158;2022-12-29T06:18:22;7.40;;;7.00;;
5674;SDS011;2860;54.284;10.158;2022-12-29T06:20:47;6.63;;;6.32;;
5674;SDS011;2860;54.284;10.158;2022-12-29T06:23:13;5.85;;;5.50;;
5674;SDS011;2860;54.284;10.158;2022-12-29T06:25:39;6.18;;;5.88;;
5674;SDS011;2860;54.284;10.158;2022-12-29T06:28:04;5.93;;;5.70;;
5674;SDS011;2860;54.284;10.158;2022-12-29T06:30:30;5.72;;;5.53;;
5674;SDS011;2860;54.284;10.158;2022-12-29T06:32:58;6.47;;;6.00;;
5674;SDS011;2860;54.284;10.158;2022-12-29T06:35:23;5.75;;;5.50;;
5674;SDS011;2860;54.284;10.158;2022-12-29T06:37:49;5.80;;;5.60;;
5674;SDS011;2860;54.284;10.158;2022-12-29T06:40:15;5.75;;;5.32;;
5674;SDS011;2860;54.284;10.158;2022-12-29T06:42:40;6.60;;;6.10;;
5674;SDS011;2860;54.284;10.158;2022-12-29T06:45:06;9.20;;;6.22;;
5674;SDS011;2860;54.284;10.158;2022-12-29T06:47:32;6.88;;;6.30;;
5674;SDS011;2860;54.284;10.158;2022-12-29T06:49:58;7.50;;;7.07;;
5674;SDS011;2860;54.284;10.158;2022-12-29T06:52:23;7.05;;;6.65;;
5674;SDS011;2860;54.284;10.158;2022-12-29T06:54:49;7.50;;;6.90;;
5674;SDS011;2860;54.284;10.158;2022-12-29T06:57:15;7.80;;;7.38;;
5674;SDS011;2860;54.284;10.158;2022-12-29T06:59:40;6.50;;;6.10;;
5674;SDS011;2860;54.284;10.158;2022-12-29T07:02:06;8.80;;;8.20;;
5674;SDS011;2860;54.284;10.158;2022-12-29T07:04:31;7.30;;;6.80;;
5674;SDS011;2860;54.284;10.158;2022-12-29T07:06:57;8.07;;;7.32;;
5674;SDS011;2860;54.284;10.158;2022-12-29T07:09:22;8.38;;;7.78;;
5674;SDS011;2860;54.284;10.158;2022-12-29T07:11:48;7.50;;;7.05;;
5674;SDS011;2860;54.284;10.158;2022-12-29T07:14:14;8.05;;;7.45;;
5674;SDS011;2860;54.284;10.158;2022-12-29T07:16:39;7.55;;;6.82;;
5674;SDS011;2860;54.284;10.158;2022-12-29T07:19:05;8.45;;;6.95;;
5674;SDS011;2860;54.284;10.158;2022-12-29T07:21:30;7.60;;;6.80;;
5674;SDS011;2860;54.284;10.158;2022-12-29T07:23:56;6.60;;;6.20;;
5674;SDS011;2860;54.284;10.158;2022-12-29T07:26:21;9.77;;;6.30;;
5674;SDS011;2860;54.284;10.158;2022-12-29T07:28:47;6.28;;;5.75;;
5674;SDS011;2860;54.284;10.158;2022-12-29T07:31:19;6.32;;;5.80;;
5674;SDS011;2860;54.284;10.158;2022-12-29T07:33:47;5.65;;;5.35;;
5674;SDS011;2860;54.284;10.158;2022-12-29T07:36:13;6.32;;;5.78;;
5674;SDS011;2860;54.284;10.158;2022-12-29T07:38:40;6.15;;;5.60;;
5674;SDS011;2860;54.284;10.158;2022-12-29T07:41:06;5.55;;;5.15;;
5674;SDS011;2860;54.284;10.158;2022-12-29T07:43:31;6.72;;;5.80;;
5674;SDS011;2860;54.284;10.158;2022-12-29T07:45:57;5.88;;;5.47;;
5674;SDS011;2860;54.284;10.158;2022-12-29T07:48:22;5.15;;;4.88;;
5674;SDS011;2860;54.284;10.158;2022-12-29T07:50:48;5.20;;;4.80;;
5674;SDS011;2860;54.284;10.158;2022-12-29T07:53:14;6.82;;;5.28;;
5674;SDS011;2860;54.284;10.158;2022-12-29T07:55:40;4.30;;;4.20;;
5674;SDS011;2860;54.284;10.158;2022-12-29T07:58:05;4.60;;;4.50;;
5674;SDS011;2860;54.284;10.158;2022-12-29T08:00:31;5.53;;;5.10;;
5674;SDS011;2860;54.284;10.158;2022-12-29T08:02:57;6.00;;;4.30;;
5674;SDS011;2860;54.284;10.158;2022-12-29T08:05:23;4.82;;;4.68;;
5674;SDS011;2860;54.284;10.158;2022-12-29T08:07:48;5.18;;;3.85;;
5674;SDS011;2860;54.284;10.158;2022-12-29T08:10:14;4.35;;;4.10;;
5674;SDS011;2860;54.284;10.158;2022-12-29T08:12:40;4.35;;;3.95;;
5674;SDS011;2860;54.284;10.158;2022-12-29T08:15:06;4.38;;;4.22;;
5674;SDS011;2860;54.284;10.158;2022-12-29T08:17:33;8.27;;;3.10;;
5674;SDS011;2860;54.284;10.158;2022-12-29T08:19:59;3.97;;;3.53;;
5674;SDS011;2860;54.284;10.158;2022-12-29T08:22:24;2.55;;;2.50;;
5674;SDS011;2860;54.284;10.158;2022-12-29T08:24:50;2.58;;;2.38;;
5674;SDS011;2860;54.284;10.158;2022-12-29T08:27:16;7.20;;;3.17;;
5674;SDS011;2860;54.284;10.158;2022-12-29T08:29:42;4.55;;;3.47;;
5674;SDS011;2860;54.284;10.158;2022-12-29T08:32:08;2.80;;;2.70;;
5674;SDS011;2860;54.284;10.158;2022-12-29T08:34:33;5.15;;;2.72;;
5674;SDS011;2860;54.284;10.158;2022-12-29T08:36:58;5.55;;;2.70;;
5674;SDS011;2860;54.284;10.158;2022-12-29T08:39:24;6.65;;;3.90;;
5674;SDS011;2860;54.284;10.158;2022-12-29T08:41:50;2.83;;;2.70;;
5674;SDS011;2860;54.284;10.158;2022-12-29T08:44:15;6.32;;;2.65;;
5674;SDS011;2860;54.284;10.158;2022-12-29T08:46:41;3.03;;;2.45;;
5674;SDS011;2860;54.284;10.158;2022-12-29T08:49:07;3.10;;;2.17;;
5674;SDS011;2860;54.284;10.158;2022-12-29T08:51:32;4.88;;;1.95;;
5674;SDS011;2860;54.284;10.158;2022-12-29T08:53:58;8.93;;;5.10;;
5674;SDS011;2860;54.284;10.158;2022-12-29T08:56:24;6.90;;;4.20;;
5674;SDS011;2860;54.284;10.158;2022-12-29T08:58:50;2.95;;;2.42;;
5674;SDS011;2860;54.284;10.158;2022-12-29T09:01:17;4.18;;;2.00;;
5674;SDS011;2860;54.284;10.158;2022-12-29T09:03:42;2.85;;;2.08;;
5674;SDS011;2860;54.284;10.158;2022-12-29T09:06:08;2.60;;;2.50;;
5674;SDS011;2860;54.284;10.158;2022-12-29T09:08:33;4.28;;;2.72;;
5674;SDS011;2860;54.284;10.158;2022-12-29T09:11:32;3.08;;;2.53;;
5674;SDS011;2860;54.284;10.158;2022-12-29T09:13:51;4.88;;;2.88;;
5674;SDS011;2860;54.284;10.158;2022-12-29T09:16:18;3.45;;;3.03;;
5674;SDS011;2860;54.284;10.158;2022-12-29T09:18:45;3.28;;;2.97;;
5674;SDS011;2860;54.284;10.158;2022-12-29T09:21:11;2.72;;;2.53;;
5674;SDS011;2860;54.284;10.158;2022-12-29T09:23:37;3.70;;;2.15;;
5674;SDS011;2860;54.284;10.158;2022-12-29T09:26:03;5.57;;;1.70;;
5674;SDS011;2860;54.284;10.158;2022-12-29T09:28:29;2.17;;;1.23;;
5674;SDS011;2860;54.284;10.158;2022-12-29T09:30:55;7.05;;;2.05;;
5674;SDS011;2860;54.284;10.158;2022-12-29T09:33:22;4.03;;;2.45;;
5674;SDS011;2860;54.284;10.158;2022-12-29T09:35:51;1.60;;;1.30;;
5674;SDS011;2860;54.284;10.158;2022-12-29T09:38:22;5.40;;;1.60;;
5674;SDS011;2860;54.284;10.158;2022-12-29T09:40:49;4.55;;;1.48;;
5674;SDS011;2860;54.284;10.158;2022-12-29T09:43:20;4.07;;;1.45;;
5674;SDS011;2860;54.284;10.158;2022-12-29T09:46:06;6.63;;;1.48;;
5674;SDS011;2860;54.284;10.158;2022-12-29T09:49:03;5.88;;;1.42;;
5674;SDS011;2860;54.284;10.158;2022-12-29T09:51:31;1.90;;;1.25;;
5674;SDS011;2860;54.284;10.158;2022-12-29T09:54:23;3.42;;;1.38;;
5674;SDS011;2860;54.284;10.158;2022-12-29T09:56:57;3.10;;;1.85;;
5674;SDS011;2860;54.284;10.158;2022-12-29T09:59:24;4.40;;;1.92;;
5674;SDS011;2860;54.284;10.158;2022-12-29T10:02:48;10.20;;;1.42;;
5674;SDS011;2860;54.284;10.158;2022-12-29T10:04:52;4.53;;;1.70;;
5674;SDS011;2860;54.284;10.158;2022-12-29T10:07:32;4.10;;;1.20;;
5674;SDS011;2860;54.284;10.158;2022-12-29T10:15:46;8.07;;;1.73;;
5674;SDS011;2860;54.284;10.158;2022-12-29T10:26:22;6.35;;;1.30;;
5674;SDS011;2860;54.284;10.158;2022-12-29T10:28:53;4.60;;;1.60;;
5674;SDS011;2860;54.284;10.158;2022-12-29T10:31:32;4.78;;;1.48;;
5674;SDS011;2860;54.284;10.158;2022-12-29T10:34:03;4.90;;;1.70;;
5674;SDS011;2860;54.284;10.158;2022-12-29T10:36:40;2.15;;;1.90;;
5674;SDS011;2860;54.284;10.158;2022-12-29T10:42:01;4.65;;;1.45;;
5674;SDS011;2860;54.284;10.158;2022-12-29T10:44:36;3.28;;;0.93;;
5674;SDS011;2860;54.284;10.158;2022-12-29T10:47:02;1.17;;;0.88;;
5674;SDS011;2860;54.284;10.158;2022-12-29T10:49:32;4.13;;;1.23;;
5674;SDS011;2860;54.284;10.158;2022-12-29T10:52:04;5.00;;;2.33;;
5674;SDS011;2860;54.284;10.158;2022-12-29T10:54:51;2.63;;;1.30;;
5674;SDS011;2860;54.284;10.158;2022-12-29T10:57:42;6.47;;;1.33;;
5674;SDS011;2860;54.284;10.158;2022-12-29T11:00:12;7.80;;;1.45;;
5674;SDS011;2860;54.284;10.158;2022-12-29T11:02:51;3.75;;;1.25;;
5674;SDS011;2860;54.284;10.158;2022-12-29T11:08:31;8.90;;;1.42;;
5674;SDS011;2860;54.284;10.158;2022-12-29T11:11:04;3.95;;;1.20;;
5674;SDS011;2860;54.284;10.158;2022-12-29T11:13:33;2.90;;;1.00;;
5674;SDS011;2860;54.284;10.158;2022-12-29T11:16:11;5.13;;;1.27;;
5674;SDS011;2860;54.284;10.158;2022-12-29T11:18:37;1.85;;;1.02;;
5674;SDS011;2860;54.284;10.158;2022-12-29T11:21:06;3.03;;;2.05;;
5674;SDS011;2860;54.284;10.158;2022-12-29T11:23:59;5.95;;;1.92;;
5674;SDS011;2860;54.284;10.158;2022-12-29T11:26:29;2.80;;;1.33;;
5674;SDS011;2860;54.284;10.158;2022-12-29T11:31:39;3.20;;;1.50;;
5674;SDS011;2860;54.284;10.158;2022-12-29T11:34:16;2.33;;;1.45;;
5674;SDS011;2860;54.284;10.158;2022-12-29T11:36:43;11.05;;;2.03;;
5674;SDS011;2860;54.284;10.158;2022-12-29T11:39:21;8.40;;;1.20;;
5674;SDS011;2860;54.284;10.158;2022-12-29T11:41:52;4.65;;;2.15;;
5674;SDS011;2860;54.284;10.158;2022-12-29T11:44:18;9.30;;;1.67;;
5674;SDS011;2860;54.284;10.158;2022-12-29T11:46:45;7.13;;;1.40;;
5674;SDS011;2860;54.284;10.158;2022-12-29T11:49:22;3.92;;;1.50;;
5674;SDS011;2860;54.284;10.158;2022-12-29T11:51:50;10.60;;;1.83;;
5674;SDS011;2860;54.284;10.158;2022-12-29T11:54:21;3.35;;;1.20;;
5674;SDS011;2860;54.284;10.158;2022-12-29T11:56:50;6.55;;;1.40;;
5674;SDS011;2860;54.284;10.158;2022-12-29T12:04:56;4.88;;;1.60;;
5674;SDS011;2860;54.284;10.158;2022-12-29T12:07:34;4.00;;;2.22;;
5674;SDS011;2860;54.284;10.158;2022-12-29T12:10:05;7.38;;;1.58;;
5674;SDS011;2860;54.284;10.158;2022-12-29T12:12:38;6.38;;;2.58;;
5674;SDS011;2860;54.284;10.158;2022-12-29T12:15:21;5.13;;;1.83;;
5674;SDS011;2860;54.284;10.158;2022-12-29T12:18:08;7.88;;;1.45;;
5674;SDS011;2860;54.284;10.158;2022-12-29T12:23:13;7.00;;;1.80;;
5674;SDS011;2860;54.284;10.158;2022-12-29T12:25:55;4.20;;;2.38;;
5674;SDS011;2860;54.284;10.158;2022-12-29T12:28:39;9.18;;;2.22;;
5674;SDS011;2860;54.284;10.158;2022-12-29T12:31:17;4.10;;;1.20;;
5674;SDS011;2860;54.284;10.158;2022-12-29T12:33:50;31.35;;;15.10;;
5674;SDS011;2860;54.284;10.158;2022-12-29T12:36:28;6.32;;;1.98;;
5674;SDS011;2860;54.284;10.158;2022-12-29T12:53:45;6.28;;;1.52;;
5674;SDS011;2860;54.284;10.158;2022-12-29T13:02:38;1.75;;;1.58;;
5674;SDS011;2860;54.284;10.158;2022-12-29T13:05:30;7.28;;;1.52;;
5674;SDS011;2860;54.284;10.158;2022-12-29T13:11:29;8.98;;;1.92;;
5674;SDS011;2860;54.284;10.158;2022-12-29T13:13:45;4.82;;;1.40;;
5674;SDS011;2860;54.284;10.158;2022-12-29T13:16:27;4.10;;;2.35;;
5674;SDS011;2860;54.284;10.158;2022-12-29T13:19:05;2.47;;;1.17;;
5674;SDS011;2860;54.284;10.158;2022-12-29T13:27:36;4.55;;;1.88;;
5674;SDS011;2860;54.284;10.158;2022-12-29T13:30:19;6.43;;;1.60;;
5674;SDS011;2860;54.284;10.158;2022-12-29T13:32:55;7.05;;;1.75;;
5674;SDS011;2860;54.284;10.158;2022-12-29T13:35:34;10.40;;;3.00;;
5674;SDS011;2860;54.284;10.158;2022-12-29T13:41:26;4.43;;;1.65;;
5674;SDS011;2860;54.284;10.158;2022-12-29T13:43:55;4.50;;;1.58;;
5674;SDS011;2860;54.284;10.158;2022-12-29T13:46:39;2.63;;;1.20;;
5674;SDS011;2860;54.284;10.158;2022-12-29T13:49:10;1.27;;;1.23;;
5674;SDS011;2860;54.284;10.158;2022-12-29T13:51:43;7.63;;;1.80;;
5674;SDS011;2860;54.284;10.158;2022-12-29T13:54:22;6.90;;;1.30;;
5674;SDS011;2860;54.284;10.158;2022-12-29T13:59:42;5.03;;;1.73;;
5674;SDS011;2860;54.284;10.158;2022-12-29T14:07:43;4.47;;;1.80;;
5674;SDS011;2860;54.284;10.158;2022-12-29T14:16:11;8.98;;;2.85;;
5674;SDS011;2860;54.284;10.158;2022-12-29T14:18:51;3.75;;;1.80;;
5674;SDS011;2860;54.284;10.158;2022-12-29T14:21:20;6.35;;;2.28;;
5674;SDS011;2860;54.284;10.158;2022-12-29T14:23:49;15.90;;;2.13;;
5674;SDS011;2860;54.284;10.158;2022-12-29T14:26:17;5.70;;;1.92;;
5674;SDS011;2860;54.284;10.158;2022-12-29T14:28:54;4.60;;;1.70;;
5674;SDS011;2860;54.284;10.158;2022-12-29T14:31:32;5.75;;;1.73;;
5674;SDS011;2860;54.284;10.158;2022-12-29T14:36:34;10.85;;;2.58;;
5674;SDS011;2860;54.284;10.158;2022-12-29T14:39:01;7.38;;;1.95;;
5674;SDS011;2860;54.284;10.158;2022-12-29T14:41:40;10.02;;;2.30;;
5674;SDS011;2860;54.284;10.158;2022-12-29T14:44:24;8.60;;;2.55;;
5674;SDS011;2860;54.284;10.158;2022-12-29T14:49:29;5.93;;;2.70;;
5674;SDS011;2860;54.284;10.158;2022-12-29T14:52:04;10.18;;;2.65;;
5674;SDS011;2860;54.284;10.158;2022-12-29T14:54:41;8.65;;;2.72;;
5674;SDS011;2860;54.284;10.158;2022-12-29T14:57:10;11.05;;;3.03;;
5674;SDS011;2860;54.284;10.158;2022-12-29T14:59:52;5.93;;;2.55;;
5674;SDS011;2860;54.284;10.158;2022-12-29T15:02:22;6.72;;;2.05;;
5674;SDS011;2860;54.284;10.158;2022-12-29T15:04:50;10.05;;;2.10;;
5674;SDS011;2860;54.284;10.158;2022-12-29T15:07:18;7.97;;;2.60;;
5674;SDS011;2860;54.284;10.158;2022-12-29T15:09:45;10.38;;;2.78;;
5674;SDS011;2860;54.284;10.158;2022-12-29T15:14:57;7.95;;;1.92;;
5674;SDS011;2860;54.284;10.158;2022-12-29T15:17:24;6.90;;;2.15;;
5674;SDS011;2860;54.284;10.158;2022-12-29T15:20:03;7.80;;;2.05;;
5674;SDS011;2860;54.284;10.158;2022-12-29T15:22:43;7.10;;;2.92;;
5674;SDS011;2860;54.284;10.158;2022-12-29T15:25:15;8.63;;;2.83;;
5674;SDS011;2860;54.284;10.158;2022-12-29T15:27:41;5.63;;;2.53;;
5674;SDS011;2860;54.284;10.158;2022-12-29T15:30:12;6.50;;;2.65;;
5674;SDS011;2860;54.284;10.158;2022-12-29T15:32:39;9.85;;;2.33;;
5674;SDS011;2860;54.284;10.158;2022-12-29T15:37:59;12.60;;;2.75;;
5674;SDS011;2860;54.284;10.158;2022-12-29T15:40:31;5.28;;;1.75;;
5674;SDS011;2860;54.284;10.158;2022-12-29T15:45:53;11.98;;;2.38;;
5674;SDS011;2860;54.284;10.158;2022-12-29T15:48:20;10.65;;;2.13;;
5674;SDS011;2860;54.284;10.158;2022-12-29T15:50:48;11.63;;;1.88;;
5674;SDS011;2860;54.284;10.158;2022-12-29T15:53:18;4.75;;;1.70;;
5674;SDS011;2860;54.284;10.158;2022-12-29T15:55:56;12.05;;;2.28;;
5674;SDS011;2860;54.284;10.158;2022-12-29T15:58:26;4.15;;;1.77;;
5674;SDS011;2860;54.284;10.158;2022-12-29T16:00:55;9.77;;;2.00;;
5674;SDS011;2860;54.284;10.158;2022-12-29T16:03:23;9.77;;;1.70;;
5674;SDS011;2860;54.284;10.158;2022-12-29T16:05:55;4.72;;;1.60;;
5674;SDS011;2860;54.284;10.158;2022-12-29T16:08:32;8.00;;;1.60;;
5674;SDS011;2860;54.284;10.158;2022-12-29T16:11:02;9.93;;;2.10;;
5674;SDS011;2860;54.284;10.158;2022-12-29T16:13:33;8.30;;;2.67;;
5674;SDS011;2860;54.284;10.158;2022-12-29T16:16:12;6.55;;;2.28;;
5674;SDS011;2860;54.284;10.158;2022-12-29T16:18:41;11.80;;;2.20;;
5674;SDS011;2860;54.284;10.158;2022-12-29T16:21:14;8.27;;;2.13;;
5674;SDS011;2860;54.284;10.158;2022-12-29T16:23:44;4.20;;;1.85;;
5674;SDS011;2860;54.284;10.158;2022-12-29T16:26:17;8.05;;;2.55;;
5674;SDS011;2860;54.284;10.158;2022-12-29T16:28:43;7.20;;;1.52;;
5674;SDS011;2860;54.284;10.158;2022-12-29T16:31:24;8.63;;;1.90;;
5674;SDS011;2860;54.284;10.158;2022-12-29T16:33:58;9.15;;;1.88;;
5674;SDS011;2860;54.284;10.158;2022-12-29T16:36:40;7.25;;;1.42;;
5674;SDS011;2860;54.284;10.158;2022-12-29T16:41:57;3.97;;;1.77;;
5674;SDS011;2860;54.284;10.158;2022-12-29T16:44:24;6.63;;;1.75;;
5674;SDS011;2860;54.284;10.158;2022-12-29T16:49:29;3.88;;;1.48;;
5674;SDS011;2860;54.284;10.158;2022-12-29T16:51:56;3.97;;;1.80;;
5674;SDS011;2860;54.284;10.158;2022-12-29T16:54:30;11.55;;;2.08;;
5674;SDS011;2860;54.284;10.158;2022-12-29T16:57:01;9.45;;;2.00;;
5674;SDS011;2860;54.284;10.158;2022-12-29T17:02:00;11.05;;;2.15;;
5674;SDS011;2860;54.284;10.158;2022-12-29T17:04:31;17.05;;;1.73;;
5674;SDS011;2860;54.284;10.158;2022-12-29T17:06:56;6.20;;;1.77;;
5674;SDS011;2860;54.284;10.158;2022-12-29T17:09:25;14.65;;;2.33;;
5674;SDS011;2860;54.284;10.158;2022-12-29T17:11:56;3.78;;;2.03;;
5674;SDS011;2860;54.284;10.158;2022-12-29T17:14:40;9.23;;;2.00;;
5674;SDS011;2860;54.284;10.158;2022-12-29T17:19:44;7.75;;;2.35;;
5674;SDS011;2860;54.284;10.158;2022-12-29T17:22:13;5.28;;;1.80;;
5674;SDS011;2860;54.284;10.158;2022-12-29T17:24:41;13.40;;;2.30;;
5674;SDS011;2860;54.284;10.158;2022-12-29T17:27:07;13.65;;;2.40;;
5674;SDS011;2860;54.284;10.158;2022-12-29T17:29:45;7.40;;;2.17;;
5674;SDS011;2860;54.284;10.158;2022-12-29T17:32:12;13.98;;;2.85;;